Time;durP1;ratioP1;P1;durP2;ratioP2;P2;SDS_P1;SDS_P2;PMS_P1;PMS_P2;Temp;Humidity;BMP_temperature;BMP_pressure;BME280_temperature;BME280_humidity;BME280_pressure;Samples;Min_cycle;Max_cycle;Signal;HPM_P1;HPM_P2
2022/06/11 00:00:17;;;;;;;2.10;1.93;;;;;;;15.82;58.91;99469.66;5093202;28;43235;-79
2022/06/11 00:02:45;;;;;;;1.50;1.40;;;;;;;15.78;58.96;99466.34;5094062;28;42185;-79
2022/06/11 00:05:13;;;;;;;2.17;1.37;;;;;;;15.76;58.44;99471.78;5093496;28;41916;-77
2022/06/11 00:07:43;;;;;;;2.53;1.50;;;;;;;15.72;58.58;99461.44;5093422;28;41961;-77
2022/06/11 00:10:11;;;;;;;1.93;1.37;;;;;;;15.74;58.81;99484.41;5076038;28;43197;-79
2022/06/11 00:12:39;;;;;;;2.03;1.47;;;;;;;15.73;58.71;99484.50;5076289;28;42001;-78
2022/06/11 00:15:08;;;;;;;2.50;1.50;;;;;;;15.70;58.99;99485.59;5078897;28;38891;-77
2022/06/11 00:17:36;;;;;;;1.37;1.27;;;;;;;15.60;59.17;99465.88;5097772;28;41787;-77
2022/06/11 00:20:06;;;;;;;2.00;1.80;;;;;;;15.58;59.13;99461.63;5099470;28;43643;-77
2022/06/11 00:22:34;;;;;;;2.30;1.60;;;;;;;15.65;59.06;99473.56;5099621;28;44210;-80
2022/06/11 00:25:04;;;;;;;1.70;1.60;;;;;;;15.63;59.23;99479.00;5097539;28;39222;-78
2022/06/11 00:27:32;;;;;;;2.57;1.97;;;;;;;15.59;59.42;99485.53;5080122;28;40791;-76
2022/06/11 00:30:00;;;;;;;1.53;1.40;;;;;;;15.54;59.79;99474.31;5094641;28;42940;-77
2022/06/11 00:32:27;;;;;;;1.70;1.60;;;;;;;15.50;60.03;99478.16;5092608;28;42654;-79
2022/06/11 00:34:58;;;;;;;1.53;1.43;;;;;;;15.47;59.72;99489.06;5075327;28;38483;-77
2022/06/11 00:37:26;;;;;;;1.97;1.60;;;;;;;15.43;59.88;99482.25;5089635;28;41457;-80
2022/06/11 00:39:54;;;;;;;1.53;1.43;;;;;;;15.39;60.05;99486.94;5092396;28;42389;-76
2022/06/11 00:42:27;;;;;;;2.07;1.63;;;;;;;15.34;60.27;99486.41;5075696;28;41634;-80
2022/06/11 00:45:22;;;;;;;1.60;1.50;;;;;;;15.31;60.18;99477.78;5092084;28;39155;-77
2022/06/11 00:47:56;;;;;;;1.50;1.40;;;;;;;15.24;60.61;99472.03;5075786;28;40312;-77
2022/06/11 00:50:29;;;;;;;1.90;1.70;;;;;;;15.21;60.58;99466.91;5092223;28;42106;-79
2022/06/11 00:52:59;;;;;;;1.80;1.63;;;;;;;15.18;60.46;99471.63;5092160;28;42259;-80
2022/06/11 00:55:30;;;;;;;3.43;1.67;;;;;;;15.14;60.65;99468.31;5075488;28;39707;-77
2022/06/11 00:58:03;;;;;;;1.70;1.60;;;;;;;15.09;60.46;99468.63;5075725;28;40863;-79
2022/06/11 01:00:34;;;;;;;1.63;1.53;;;;;;;15.05;60.49;99474.31;5090150;28;42632;-78
2022/06/11 01:03:04;;;;;;;1.40;1.30;;;;;;;15.02;60.60;99471.88;5075099;28;42662;-79
2022/06/11 01:05:34;;;;;;;1.73;1.63;;;;;;;14.88;60.70;99450.63;5075168;28;40188;-79
2022/06/11 01:08:24;;;;;;;1.60;1.50;;;;;;;14.94;60.97;99461.75;5075056;28;43667;-79
2022/06/11 01:11:37;;;;;;;1.50;1.40;;;;;;;14.90;60.84;99456.72;5071496;28;42808;-78
2022/06/11 01:14:17;;;;;;;1.90;1.80;;;;;;;14.86;60.88;99455.22;5050095;28;42181;-77
2022/06/11 01:16:57;;;;;;;2.30;1.57;;;;;;;14.84;61.10;99457.16;5075007;28;39020;-78
2022/06/11 01:19:46;;;;;;;1.53;1.43;;;;;;;14.72;60.98;99449.03;5089065;28;42448;-77
2022/06/11 01:22:29;;;;;;;1.57;1.47;;;;;;;14.73;61.19;99445.44;5075312;28;41747;-78
2022/06/11 01:25:06;;;;;;;2.23;1.73;;;;;;;14.73;61.34;99456.09;5091646;28;41176;-79
2022/06/11 01:27:48;;;;;;;2.70;1.60;;;;;;;14.71;61.54;99458.00;5075113;28;39058;-78
2022/06/11 01:30:23;;;;;;;1.70;1.60;;;;;;;14.68;61.42;99452.91;5091958;28;40782;-78
2022/06/11 01:33:01;;;;;;;1.50;1.40;;;;;;;14.57;61.36;99444.81;5091719;28;41854;-78
2022/06/11 01:35:41;;;;;;;1.80;1.70;;;;;;;14.61;61.37;99448.94;5074525;28;42497;-76
2022/06/11 01:38:18;;;;;;;1.93;1.83;;;;;;;14.57;61.90;99459.94;5074614;28;38811;-78
2022/06/11 01:40:52;;;;;;;1.63;1.53;;;;;;;14.45;61.90;99445.66;5074261;28;41750;-76
2022/06/11 01:43:25;;;;;;;2.53;1.70;;;;;;;14.48;61.63;99456.09;5074756;28;41935;-75
2022/06/11 01:45:54;;;;;;;1.70;1.60;;;;;;;14.44;62.18;99457.28;5091010;28;43506;-77
2022/06/11 01:48:25;;;;;;;1.73;1.63;;;;;;;14.38;62.13;99454.97;5091347;28;41024;-79
2022/06/11 01:51:07;;;;;;;2.10;1.50;;;;;;;14.34;62.14;99453.50;5091738;28;42141;-77
2022/06/11 01:53:43;;;;;;;1.43;1.33;;;;;;;14.26;62.32;99442.50;5089488;28;43507;-78
2022/06/11 01:56:28;;;;;;;2.60;2.00;;;;;;;14.25;62.41;99454.09;5074261;28;42936;-79
2022/06/11 01:59:22;;;;;;;2.00;1.80;;;;;;;14.21;62.34;99452.63;5088675;28;40763;-78
2022/06/11 02:02:03;;;;;;;1.50;1.40;;;;;;;14.18;62.19;99455.50;5091669;28;41880;-79
2022/06/11 02:04:46;;;;;;;2.23;1.70;;;;;;;14.08;62.23;99443.75;5074663;28;42200;-78
2022/06/11 02:07:19;;;;;;;1.90;1.60;;;;;;;14.11;62.23;99452.38;5090921;28;42275;-78
2022/06/11 02:09:58;;;;;;;1.93;1.50;;;;;;;14.08;62.27;99451.75;5073921;28;38849;-76
2022/06/11 02:12:32;;;;;;;1.37;1.27;;;;;;;13.94;62.34;99434.88;5088972;28;42393;-79
2022/06/11 02:15:03;;;;;;;1.70;1.60;;;;;;;14.02;62.30;99461.84;5074333;28;43210;-79
2022/06/11 02:17:36;;;;;;;1.80;1.70;;;;;;;13.98;62.37;99463.00;5087989;28;42340;-80
2022/06/11 02:20:10;;;;;;;1.40;1.30;;;;;;;13.97;62.70;99466.63;5088705;28;40677;-80
2022/06/11 02:22:44;;;;;;;1.73;1.63;;;;;;;13.94;62.67;99466.00;5074149;28;40795;-78
2022/06/11 02:25:16;;;;;;;1.30;1.20;;;;;;;13.91;62.80;99467.03;5088785;28;42937;-78
2022/06/11 02:27:47;;;;;;;1.90;1.70;;;;;;;13.89;62.87;99466.28;5087962;28;42235;-78
2022/06/11 02:30:19;;;;;;;2.13;1.70;;;;;;;13.88;62.47;99463.72;5074216;28;38905;-76
2022/06/11 02:32:49;;;;;;;1.50;1.40;;;;;;;13.79;62.83;99451.03;5090973;28;41552;-78
2022/06/11 02:35:28;;;;;;;1.70;1.40;;;;;;;13.72;62.94;99439.94;5090869;28;43551;-79
2022/06/11 02:37:57;;;;;;;1.70;1.60;;;;;;;13.85;62.69;99467.44;5091312;28;41944;-80
2022/06/11 02:40:28;;;;;;;2.17;1.97;;;;;;;13.92;62.58;99463.44;5089976;28;40976;-81
2022/06/11 02:42:57;;;;;;;1.80;1.70;;;;;;;13.97;62.39;99473.78;5073774;28;41821;-77
2022/06/11 02:45:25;;;;;;;1.70;1.60;;;;;;;13.88;62.51;99453.94;5090295;28;41726;-79
2022/06/11 02:47:54;;;;;;;2.30;2.03;;;;;;;13.94;62.96;99469.50;5090871;28;41483;-78
2022/06/11 02:50:25;;;;;;;1.57;1.47;;;;;;;13.89;62.89;99468.94;5073686;28;38927;-75
2022/06/11 02:52:54;;;;;;;1.67;1.57;;;;;;;13.85;62.98;99466.56;5073760;28;41640;-80
2022/06/11 02:55:21;;;;;;;1.70;1.60;;;;;;;13.69;63.48;99449.94;5073536;28;43233;-80
2022/06/11 02:57:49;;;;;;;1.70;1.60;;;;;;;13.77;63.33;99468.91;5091633;28;43005;-76
2022/06/11 03:00:21;;;;;;;1.60;1.50;;;;;;;13.74;63.44;99483.25;5073716;28;39978;-77
2022/06/11 03:02:48;;;;;;;1.80;1.70;;;;;;;13.71;63.36;99474.66;5073597;28;40571;-81
2022/06/11 03:05:21;;;;;;;2.20;1.83;;;;;;;13.68;63.83;99480.16;5090493;28;41778;-78
2022/06/11 03:07:50;;;;;;;2.17;1.80;;;;;;;13.65;63.73;99478.53;5087476;28;42193;-80
2022/06/11 03:10:22;;;;;;;1.70;1.50;;;;;;;13.54;63.83;99463.28;5090301;28;40960;-80
2022/06/11 03:12:50;;;;;;;3.80;1.90;;;;;;;13.60;64.07;99470.00;5086965;28;42721;-81
2022/06/11 03:15:20;;;;;;;3.03;1.90;;;;;;;13.58;63.97;99477.25;5089233;28;43816;-79
2022/06/11 03:17:50;;;;;;;2.13;1.93;;;;;;;13.55;64.37;99474.78;5072982;28;41162;-80
2022/06/11 03:20:22;;;;;;;1.73;1.63;;;;;;;13.55;64.15;99485.44;5090512;28;39313;-79
2022/06/11 03:22:50;;;;;;;3.83;2.20;;;;;;;13.53;64.31;99488.19;5073458;28;40750;-77
2022/06/11 03:25:18;;;;;;;1.63;1.53;;;;;;;13.52;64.16;99491.78;5090195;28;43460;-77
2022/06/11 03:27:47;;;;;;;2.10;1.90;;;;;;;13.53;64.35;99492.66;5091275;28;42140;-79
2022/06/11 03:30:16;;;;;;;2.30;2.10;;;;;;;13.55;64.57;99490.75;5073005;28;40918;-79
2022/06/11 03:32:44;;;;;;;1.37;1.27;;;;;;;13.55;64.59;99494.25;5089721;28;41173;-77
2022/06/11 03:35:12;;;;;;;2.10;1.80;;;;;;;13.58;64.83;99494.06;5073316;28;41909;-78
2022/06/11 03:37:42;;;;;;;1.70;1.60;;;;;;;13.60;64.87;99499.28;5073058;28;42471;-80
2022/06/11 03:40:11;;;;;;;1.70;1.60;;;;;;;13.60;64.75;99493.94;5090881;28;39840;-77
2022/06/11 03:42:38;;;;;;;1.73;1.63;;;;;;;13.60;65.11;99489.47;5090113;28;41756;-79
2022/06/11 03:45:07;;;;;;;1.63;1.53;;;;;;;13.63;65.63;99494.59;5072704;28;41493;-76
2022/06/11 03:47:38;;;;;;;2.17;1.73;;;;;;;13.65;65.38;99494.50;5072942;28;42624;-77
2022/06/11 03:50:08;;;;;;;1.93;1.80;;;;;;;13.67;65.75;99497.94;5089393;28;38952;-78
2022/06/11 03:52:37;;;;;;;3.00;1.87;;;;;;;13.66;66.80;99496.22;5089632;28;40826;-77
2022/06/11 03:55:07;;;;;;;1.90;1.80;;;;;;;13.69;66.72;99498.69;5089675;28;43787;-77
2022/06/11 03:57:35;;;;;;;2.03;1.80;;;;;;;13.71;66.14;99504.78;5073131;28;41185;-77
2022/06/11 04:00:07;;;;;;;3.03;2.30;;;;;;;13.74;65.89;99507.22;5089955;28;39591;-78
2022/06/11 04:02:36;;;;;;;2.70;1.80;;;;;;;13.75;65.63;99506.28;5089602;28;41027;-78
2022/06/11 04:05:05;;;;;;;1.90;1.80;;;;;;;13.81;65.46;99516.53;5072658;28;42088;-79
2022/06/11 04:07:33;;;;;;;2.17;2.03;;;;;;;13.85;65.46;99518.03;5089622;28;42180;-78
2022/06/11 04:10:01;;;;;;;1.70;1.60;;;;;;;13.90;65.37;99513.25;5073086;28;39083;-79
2022/06/11 04:12:30;;;;;;;4.13;1.60;;;;;;;13.97;65.19;99522.53;5089957;28;41608;-80
2022/06/11 04:14:58;;;;;;;1.70;1.60;;;;;;;14.03;65.50;99519.50;5072378;28;42807;-80
2022/06/11 04:17:29;;;;;;;2.30;2.10;;;;;;;14.09;65.65;99525.38;5088988;28;42595;-81
2022/06/11 04:19:57;;;;;;;1.90;1.80;;;;;;;14.17;65.80;99520.38;5089371;28;40942;-79
2022/06/11 04:22:25;;;;;;;2.13;1.93;;;;;;;14.25;66.17;99518.91;5072852;28;40607;-77
2022/06/11 04:24:52;;;;;;;2.17;1.87;;;;;;;14.20;65.77;99489.06;5089291;28;43002;-78
2022/06/11 04:27:22;;;;;;;2.03;1.93;;;;;;;14.51;65.84;99525.19;5092691;28;41137;-81
2022/06/11 04:29:54;;;;;;;2.17;2.00;;;;;;;14.71;65.83;99515.84;5076239;28;39449;-80
2022/06/11 04:32:24;;;;;;;3.13;2.10;;;;;;;14.88;66.39;99514.66;5090723;28;42112;-79
2022/06/11 04:34:52;;;;;;;2.80;2.00;;;;;;;15.10;65.49;99512.19;5092545;28;43867;-80
2022/06/11 04:37:24;;;;;;;2.83;2.30;;;;;;;15.39;65.48;99524.31;5092937;28;43164;-79
2022/06/11 04:39:54;;;;;;;2.17;1.97;;;;;;;15.67;65.23;99531.22;5075199;28;40396;-77
2022/06/11 04:42:25;;;;;;;3.60;2.27;;;;;;;15.94;64.89;99525.69;5092082;28;41656;-80
2022/06/11 04:44:54;;;;;;;2.87;2.13;;;;;;;16.13;64.43;99526.00;5075709;28;41630;-78
2022/06/11 04:47:27;;;;;;;2.67;2.47;;;;;;;16.27;64.64;99526.81;5093806;28;42224;-80
2022/06/11 04:49:58;;;;;;;2.83;2.50;;;;;;;16.40;64.42;99522.25;5092155;28;40055;-79
2022/06/11 04:52:27;;;;;;;2.67;2.47;;;;;;;16.49;64.54;99516.19;5092637;28;41053;-78
2022/06/11 04:54:55;;;;;;;3.17;2.37;;;;;;;16.46;64.46;99495.00;5075228;28;41945;-78
2022/06/11 04:57:23;;;;;;;3.20;1.97;;;;;;;16.70;64.31;99524.41;5093595;28;42900;-77
2022/06/11 04:59:52;;;;;;;2.40;2.20;;;;;;;16.73;64.26;99503.63;5075288;28;38938;-79
2022/06/11 05:02:22;;;;;;;2.60;2.40;;;;;;;16.86;64.43;99512.41;5075478;28;40640;-78
2022/06/11 05:04:50;;;;;;;2.47;2.27;;;;;;;17.03;64.02;99523.63;5092991;28;42629;-80
2022/06/11 05:07:18;;;;;;;3.00;2.40;;;;;;;17.16;64.00;99524.38;5074852;28;43017;-78
2022/06/11 05:09:46;;;;;;;4.07;2.10;;;;;;;17.30;63.84;99523.28;5092249;28;40756;-77
2022/06/11 05:12:14;;;;;;;3.60;2.37;;;;;;;17.45;63.26;99527.38;5075281;28;42491;-81
2022/06/11 05:14:42;;;;;;;2.07;1.90;;;;;;;17.53;63.05;99515.09;5075316;28;41420;-80
2022/06/11 05:17:10;;;;;;;2.23;2.03;;;;;;;17.76;62.34;99536.53;5074952;28;41480;-78
2022/06/11 05:19:39;;;;;;;2.13;1.93;;;;;;;17.86;62.38;99524.06;5074631;28;38823;-79
2022/06/11 05:22:07;;;;;;;2.53;2.33;;;;;;;18.09;61.87;99539.13;5075241;28;40684;-79
2022/06/11 05:24:35;;;;;;;2.57;1.80;;;;;;;18.23;61.31;99536.16;5075156;28;42760;-79
2022/06/11 05:27:08;;;;;;;2.37;2.17;;;;;;;18.41;60.97;99540.97;5092094;28;43233;-79
2022/06/11 05:29:43;;;;;;;1.80;1.70;;;;;;;18.69;60.50;99542.19;5090162;28;39942;-80
2022/06/11 05:32:11;;;;;;;2.50;2.30;;;;;;;18.87;59.54;99548.69;5088423;28;41754;-77
2022/06/11 05:34:40;;;;;;;3.07;2.30;;;;;;;19.05;58.96;99548.91;5091500;28;41798;-80
2022/06/11 05:37:08;;;;;;;2.50;2.30;;;;;;;19.09;58.37;99559.25;5073496;28;41176;-79
2022/06/11 05:39:36;;;;;;;2.40;2.20;;;;;;;19.15;58.33;99555.22;5087446;28;39865;-78
2022/06/11 05:42:05;;;;;;;2.57;2.37;;;;;;;19.24;57.55;99565.16;5088049;28;42780;-79
2022/06/11 05:44:33;;;;;;;2.37;2.17;;;;;;;19.36;57.97;99580.19;5071169;28;42893;-77
2022/06/11 05:47:00;;;;;;;2.40;2.20;;;;;;;19.48;57.32;99563.00;5071122;28;43241;-78
2022/06/11 05:49:33;;;;;;;2.30;2.10;;;;;;;19.61;57.01;99568.16;5071252;28;38894;-78
2022/06/11 05:52:08;;;;;;;2.90;2.60;;;;;;;19.74;57.13;99568.78;5089244;28;41741;-81
2022/06/11 05:54:37;;;;;;;2.87;2.30;;;;;;;19.73;56.22;99551.81;5091008;28;44401;-77
2022/06/11 05:57:07;;;;;;;2.67;2.23;;;;;;;19.92;55.94;99572.50;5069719;28;41240;-79
2022/06/11 05:59:43;;;;;;;2.23;2.03;;;;;;;20.03;55.73;99579.59;5074589;28;39916;-76
2022/06/11 06:02:13;;;;;;;2.60;2.40;;;;;;;20.04;56.03;99563.31;5074378;28;40721;-80
2022/06/11 06:04:41;;;;;;;3.77;2.30;;;;;;;20.23;55.22;99580.50;5091069;28;42694;-82
2022/06/11 06:07:11;;;;;;;2.47;1.87;;;;;;;20.33;55.64;99584.91;5091314;28;42924;-80
2022/06/11 06:09:39;;;;;;;2.97;2.60;;;;;;;20.43;55.09;99582.25;5090915;28;41207;-80
2022/06/11 06:12:08;;;;;;;3.20;2.30;;;;;;;20.48;54.45;99581.84;5092611;28;42752;-77
2022/06/11 06:14:36;;;;;;;3.60;2.10;;;;;;;20.44;53.81;99579.41;5074134;28;42828;-77
2022/06/11 06:17:04;;;;;;;2.13;1.77;;;;;;;20.61;53.64;99585.09;5091031;28;41099;-79
2022/06/11 06:19:32;;;;;;;2.20;1.97;;;;;;;20.76;53.77;99581.00;5074209;28;40365;-80
2022/06/11 06:22:04;;;;;;;2.70;2.50;;;;;;;20.96;53.21;99587.19;5090869;28;41448;-78
2022/06/11 06:24:34;;;;;;;2.67;1.90;;;;;;;21.21;53.05;99583.06;5074074;28;41756;-80
2022/06/11 06:27:02;;;;;;;2.50;1.83;;;;;;;21.40;52.76;99577.59;5085388;28;42407;-81
2022/06/11 06:29:30;;;;;;;2.80;2.13;;;;;;;;;;5053826;28;40030;-78
2022/06/11 06:31:58;;;;;;;2.40;1.70;;;;;;;22.00;51.59;99602.38;5070810;28;40333;-82
2022/06/11 06:34:26;;;;;;;1.87;1.70;;;;;;;22.17;50.94;99601.56;5087228;28;42216;-78
2022/06/11 06:36:54;;;;;;;2.13;1.97;;;;;;;22.29;51.00;99597.63;5070527;28;41156;-77
2022/06/11 06:39:22;;;;;;;3.70;2.20;;;;;;;22.37;51.11;99595.03;5070272;28;39789;-78
2022/06/11 06:41:58;;;;;;;2.20;2.10;;;;;;;22.56;50.27;99605.69;5070244;28;42189;-78
2022/06/11 06:44:25;;;;;;;2.50;2.00;;;;;;;22.70;50.60;99600.75;5070366;28;41913;-78
2022/06/11 06:46:53;;;;;;;3.07;2.10;;;;;;;22.83;49.33;99606.66;5061281;28;42435;-77
2022/06/11 06:49:21;;;;;;;2.30;2.10;;;;;;;22.92;49.32;99611.09;5073958;28;40878;-79
2022/06/11 06:51:48;;;;;;;2.10;1.90;;;;;;;23.04;48.98;99609.00;5070381;28;41644;-79
2022/06/11 06:54:17;;;;;;;2.00;1.77;;;;;;;23.13;49.61;99600.78;5070188;28;41573;-78
2022/06/11 06:56:45;;;;;;;1.87;1.70;;;;;;;23.39;48.63;99608.91;5070111;28;42473;-79
2022/06/11 06:59:14;;;;;;;2.73;2.13;;;;;;;23.65;46.82;99619.75;5070316;28;41046;-78
2022/06/11 07:01:42;;;;;;;3.57;1.97;;;;;;;23.89;46.44;99621.72;5086727;28;41984;-79
2022/06/11 07:04:09;;;;;;;3.10;2.27;;;;;;;24.12;45.61;99625.53;5053079;28;42691;-81
2022/06/11 07:06:37;;;;;;;2.17;1.97;;;;;;;24.21;45.73;99627.28;5070037;28;41394;-78
2022/06/11 07:09:05;;;;;;;2.83;2.00;;;;;;;24.14;45.78;99603.72;5071266;28;39727;-80
2022/06/11 07:11:33;;;;;;;3.30;1.97;;;;;;;24.21;45.46;99604.78;5085779;28;41586;-77
2022/06/11 07:14:00;;;;;;;2.07;1.90;;;;;;;24.38;44.89;99636.31;5090519;28;42629;-78
2022/06/11 07:16:33;;;;;;;1.70;1.60;;;;;;;24.53;45.28;99631.97;5091210;28;42320;-81
2022/06/11 07:19:05;;;;;;;1.93;1.83;;;;;;;24.65;45.12;99630.63;5073351;28;38958;-78
2022/06/11 07:21:36;;;;;;;2.37;2.13;;;;;;;24.69;44.85;99617.63;5072986;28;41775;-81
2022/06/11 07:24:09;;;;;;;2.53;2.00;;;;;;;24.91;43.63;99633.22;5073010;28;43442;-80
2022/06/11 07:26:43;;;;;;;2.57;1.93;;;;;;;24.92;42.82;99644.91;5086264;28;43227;-81
2022/06/11 07:29:17;;;;;;;2.60;2.00;;;;;;;24.90;43.52;99601.72;5086067;28;38845;-80
2022/06/11 07:31:49;;;;;;;2.70;1.80;;;;;;;25.96;42.89;99632.28;5110107;28;41393;-79
2022/06/11 07:34:19;;;;;;;2.17;1.60;;;;;;;27.14;39.41;99652.00;5107037;28;42496;-77
2022/06/11 07:36:47;;;;;;;3.30;2.10;;;;;;;27.85;37.75;99654.22;5072754;28;42905;-79
2022/06/11 07:39:15;;;;;;;1.80;1.70;;;;;;;27.75;38.55;99663.69;5068734;28;41096;-80
2022/06/11 07:41:42;;;;;;;2.37;1.57;;;;;;;27.69;38.43;99664.44;5099168;28;40063;-79
2022/06/11 07:44:10;;;;;;;1.47;1.30;;;;;;;27.99;37.11;99660.69;5072848;28;43125;-78
2022/06/11 07:46:38;;;;;;;2.37;1.50;;;;;;;28.35;36.96;99611.75;5123659;27;42330;-80
2022/06/11 07:49:07;;;;;;;1.50;1.40;;;;;;;28.95;37.32;99663.19;5091105;28;40616;-79
2022/06/11 07:51:35;;;;;;;2.63;1.70;;;;;;;29.05;35.82;99683.84;5106421;28;40633;-79
2022/06/11 07:54:03;;;;;;;2.00;1.60;;;;;;;29.27;35.98;99672.75;5106419;28;41928;-79
2022/06/11 07:56:31;;;;;;;5.40;1.70;;;;;;;29.49;36.05;99661.81;5072490;28;42681;-78
2022/06/11 07:58:58;;;;;;;2.40;1.60;;;;;;;30.40;34.54;99668.09;5106829;27;38528;-78
2022/06/11 08:01:26;;;;;;;1.67;1.30;;;;;;;30.72;33.61;99667.38;5112196;28;41651;-81
2022/06/11 08:03:53;;;;;;;1.23;1.10;;;;;;;31.30;33.22;99664.97;5113742;28;42555;-80
2022/06/11 08:06:22;;;;;;;1.57;1.30;;;;;;;33.14;30.17;99691.91;5113457;28;42100;-78
2022/06/11 08:08:50;;;;;;;1.53;1.40;;;;;;;35.08;28.18;99694.16;5113703;28;39953;-80
2022/06/11 08:11:18;;;;;;;1.50;1.37;;;;;;;36.97;26.24;99700.25;5113598;28;41006;-78
2022/06/11 08:13:46;;;;;;;1.95;1.45;;;;;;;38.53;24.01;99723.38;5113799;28;42780;-80
2022/06/11 08:16:14;;;;;;;1.63;1.20;;;;;;;39.62;22.67;99716.81;5096508;28;40900;-82
2022/06/11 08:18:44;;;;;;;1.98;1.10;;;;;;;40.61;21.69;99721.66;5113428;28;40767;-78
2022/06/11 08:21:22;;;;;;;1.10;1.10;;;;;;;41.31;21.22;99698.81;5113572;28;40573;-82
2022/06/11 08:23:50;;;;;;;2.28;1.10;;;;;;;41.87;19.87;99735.00;5111414;28;42546;-79
2022/06/11 08:26:17;;;;;;;1.20;1.10;;;;;;;41.98;20.28;99725.56;5095909;28;40789;-80
2022/06/11 08:28:45;;;;;;;1.85;1.20;;;;;;;41.49;20.11;99717.75;5095982;28;39802;-77
2022/06/11 08:31:13;;;;;;;1.50;1.40;;;;;;;41.12;21.33;99715.16;5094361;28;42780;-79
2022/06/11 08:33:41;;;;;;;1.90;1.40;;;;;;;40.76;21.05;99719.81;5089725;28;43000;-82
2022/06/11 08:36:09;;;;;;;2.58;1.35;;;;;;;40.51;21.51;99714.13;5091548;28;43176;-78
2022/06/11 08:38:38;;;;;;;2.00;1.23;;;;;;;40.48;21.04;99707.16;5092791;28;39791;-77
2022/06/11 08:41:14;;;;;;;2.55;1.58;;;;;;;40.48;21.42;99695.22;5091933;28;41551;-80
2022/06/11 08:43:50;;;;;;;2.40;1.30;;;;;;;41.09;20.95;99712.09;5092134;28;43144;-84
2022/06/11 08:46:19;;;;;;;1.25;1.15;;;;;;;41.78;20.38;99708.88;5092260;28;40886;-77
2022/06/11 08:48:58;;;;;;;1.58;1.30;;;;;;;42.04;19.64;99712.47;5093602;28;40038;-79
2022/06/11 08:51:33;;;;;;;1.35;1.20;;;;;;;41.76;19.65;99699.97;5092515;28;42632;-78
2022/06/11 08:54:07;;;;;;;1.83;1.40;;;;;;;40.97;20.67;99698.47;5075336;28;41911;-81
2022/06/11 08:56:42;;;;;;;1.65;1.45;;;;;;;40.38;20.36;99695.16;5075223;28;41159;-76
2022/06/11 08:59:29;;;;;;;2.10;1.15;;;;;;;40.35;20.31;99695.69;5092518;28;39996;-79
2022/06/11 09:02:10;;;;;;;1.45;1.25;;;;;;;40.86;20.50;99689.25;5092009;28;40750;-77
2022/06/11 09:04:56;;;;;;;1.88;1.20;;;;;;;41.43;20.19;99691.03;5075705;28;41673;-80
2022/06/11 09:07:34;;;;;;;1.50;1.40;;;;;;;41.35;20.07;99688.81;5075287;28;42236;-77
2022/06/11 09:10:20;;;;;;;1.50;1.40;;;;;;;41.60;18.93;99696.34;5092187;28;39220;-84
2022/06/11 09:13:07;;;;;;;1.20;1.13;;;;;;;41.23;19.50;99674.34;5090088;28;41807;-79
2022/06/11 09:15:46;;;;;;;2.15;1.20;;;;;;;41.31;18.50;99690.47;5075097;28;41692;-80
2022/06/11 09:18:30;;;;;;;1.73;1.10;;;;;;;42.12;18.23;99684.91;5089078;28;42417;-84
2022/06/11 09:21:04;;;;;;;1.45;1.30;;;;;;;43.21;17.45;99687.78;5091918;28;40840;-79
2022/06/11 09:23:48;;;;;;;2.15;1.05;;;;;;;43.60;17.04;99685.81;5091731;28;41711;-83
2022/06/11 09:26:33;;;;;;;1.42;1.33;;;;;;;43.36;17.32;99679.28;5091233;28;42740;-80
2022/06/11 09:29:11;;;;;;;1.52;1.13;;;;;;;42.28;17.99;99674.56;5089003;28;42345;-80
2022/06/11 09:31:45;;;;;;;1.77;1.08;;;;;;;41.20;17.91;99635.97;5089075;28;41669;-81
2022/06/11 09:34:22;;;;;;;1.92;1.30;;;;;;;41.20;19.04;99652.66;5089938;28;41696;-85
2022/06/11 09:36:59;;;;;;;1.45;0.90;;;;;;;41.74;18.17;99627.91;5074561;28;41714;-83
2022/06/11 09:39:40;;;;;;;1.52;1.20;;;;;;;42.96;17.74;99625.47;5074436;28;40879;-83
2022/06/11 09:42:43;;;;;;;1.45;0.90;;;;;;;44.64;17.03;99683.28;5074880;28;38853;-79
2022/06/11 09:45:18;;;;;;;1.48;1.08;;;;;;;44.94;15.69;99681.22;5086656;28;41196;-80
2022/06/11 09:47:55;;;;;;;1.02;0.93;;;;;;;44.90;16.27;99674.56;5089205;28;41605;-77
2022/06/11 09:50:29;;;;;;;2.15;1.25;;;;;;;44.69;16.30;99665.63;5091183;28;42306;-79
2022/06/11 09:53:13;;;;;;;2.38;1.00;;;;;;;44.40;16.18;99660.97;5088542;28;39980;-80
2022/06/11 09:55:47;;;;;;;3.20;1.05;;;;;;;45.09;16.12;99667.84;5091124;28;41794;-78
2022/06/11 09:58:25;;;;;;;1.10;1.00;;;;;;;45.00;15.44;99678.06;5091200;28;41703;-80
2022/06/11 10:00:58;;;;;;;2.83;1.45;;;;;;;43.96;16.25;99638.00;5093926;28;42987;-81
2022/06/11 10:03:35;;;;;;;1.27;1.10;;;;;;;43.59;16.97;99645.06;5077533;28;40345;-78
2022/06/11 10:06:09;;;;;;;1.60;0.80;;;;;;;43.63;16.73;99668.50;5090995;28;41698;-79
2022/06/11 10:08:44;;;;;;;1.60;1.20;;;;;;;43.70;16.76;99657.81;5078692;28;43629;-78
2022/06/11 10:11:16;;;;;;;1.50;1.02;;;;;;;43.63;16.46;99656.50;5095687;28;42233;-81
2022/06/11 10:13:50;;;;;;;2.67;1.20;;;;;;;43.31;17.36;99659.78;5080369;28;39795;-80
2022/06/11 10:16:34;;;;;;;1.83;1.30;;;;;;;41.90;16.84;99670.44;5094900;28;43542;-84
2022/06/11 10:19:17;;;;;;;2.38;1.20;;;;;;;40.17;18.19;99645.09;5084999;28;42815;-79
2022/06/11 10:21:58;;;;;;;2.38;1.20;;;;;;;38.96;19.06;99655.16;5086022;28;41291;-81
2022/06/11 10:24:28;;;;;;;2.03;1.13;;;;;;;38.28;20.24;99648.28;5081826;28;39824;-80
2022/06/11 10:27:04;;;;;;;3.60;1.70;;;;;;;37.83;21.10;99618.88;5070984;28;42477;-81
2022/06/11 10:29:38;;;;;;;1.30;1.10;;;;;;;37.92;20.71;99646.91;5068992;28;42714;-79
2022/06/11 10:32:13;;;;;;;3.35;1.52;;;;;;;37.84;20.81;99637.13;5067636;28;42117;-82
2022/06/11 10:34:45;;;;;;;1.27;1.00;;;;;;;38.19;20.75;99644.28;5068482;28;40898;-78
2022/06/11 10:37:21;;;;;;;1.90;1.13;;;;;;;39.17;20.94;99639.59;5067416;28;41842;-81
2022/06/11 10:39:55;;;;;;;2.28;1.17;;;;;;;39.82;20.18;99639.28;5067767;28;42791;-82
2022/06/11 10:42:33;;;;;;;3.80;1.60;;;;;;;39.58;20.99;99641.63;5067361;28;42783;-80
2022/06/11 10:45:01;;;;;;;2.08;1.10;;;;;;;39.02;21.15;99632.00;5072742;28;38590;-78
2022/06/11 10:47:35;;;;;;;1.40;1.13;;;;;;;38.34;21.61;99636.16;5090143;28;41982;-81
2022/06/11 10:50:18;;;;;;;2.30;1.20;;;;;;;37.54;22.01;99620.91;5090084;28;42128;-79
2022/06/11 10:52:50;;;;;;;1.90;1.33;;;;;;;37.00;22.01;99630.72;5074097;28;42189;-84
2022/06/11 10:55:25;;;;;;;1.83;1.00;;;;;;;36.55;22.10;99628.75;5074103;28;38640;-83
2022/06/11 10:57:53;;;;;;;2.70;1.20;;;;;;;36.42;22.34;99623.53;5088512;28;42523;-78
2022/06/11 11:00:26;;;;;;;1.97;1.50;;;;;;;35.84;22.05;99621.72;5090448;28;42831;-79
2022/06/11 11:03:01;;;;;;;1.90;1.00;;;;;;;35.37;23.26;99608.97;5086830;28;42095;-80
2022/06/11 11:05:45;;;;;;;1.23;1.13;;;;;;;35.29;23.90;99585.38;5088102;28;40677;-79
2022/06/11 11:08:14;;;;;;;1.10;1.00;;;;;;;35.50;24.36;99593.03;5087673;28;42425;-78
2022/06/11 11:10:45;;;;;;;1.67;1.20;;;;;;;35.36;24.75;99596.31;5090976;28;42830;-80
2022/06/11 11:13:20;;;;;;;1.20;1.10;;;;;;;35.23;24.60;99540.34;5073686;28;41535;-82
2022/06/11 11:15:56;;;;;;;1.73;1.13;;;;;;;35.85;24.04;99576.53;5085250;28;39541;-79
2022/06/11 11:18:28;;;;;;;1.10;1.00;;;;;;;36.51;24.03;99588.94;5085902;28;41779;-79
2022/06/11 11:20:58;;;;;;;1.40;1.30;;;;;;;36.64;24.77;99571.22;5070934;28;41900;-79
2022/06/11 11:23:32;;;;;;;2.23;1.33;;;;;;;36.50;23.52;99595.53;5087082;28;41280;-83
2022/06/11 11:26:05;;;;;;;1.37;1.00;;;;;;;36.54;22.90;99593.13;5070724;28;39648;-85
2022/06/11 11:28:45;;;;;;;1.20;1.10;;;;;;;36.76;23.02;99585.00;5075245;28;40756;-79
2022/06/11 11:31:20;;;;;;;1.20;1.10;;;;;;;36.86;25.17;99579.66;5088687;28;43712;-78
2022/06/11 11:34:01;;;;;;;1.37;0.90;;;;;;;36.73;24.62;99575.28;5090266;28;41009;-79
2022/06/11 11:36:31;;;;;;;2.60;1.30;;;;;;;36.64;23.65;99583.09;5094404;28;39252;-81
2022/06/11 11:39:17;;;;;;;1.17;1.03;;;;;;;36.52;23.99;99579.56;5093663;28;40597;-80
2022/06/11 11:42:04;;;;;;;1.73;1.13;;;;;;;36.39;23.76;99579.88;5092110;28;42700;-84
2022/06/11 11:44:37;;;;;;;2.07;1.20;;;;;;;36.36;24.06;99569.31;5086149;28;41760;-82
2022/06/11 11:47:14;;;;;;;2.33;1.47;;;;;;;36.37;25.76;99557.19;5091487;28;40227;-84
2022/06/11 11:49:52;;;;;;;1.17;0.90;;;;;;;36.12;25.98;99560.25;5092171;28;41731;-82
2022/06/11 11:52:23;;;;;;;2.00;0.97;;;;;;;36.19;26.39;99551.84;5094022;28;41802;-84
2022/06/11 11:55:02;;;;;;;1.13;1.03;;;;;;;37.11;25.22;99569.03;5093349;28;41570;-80
2022/06/11 11:57:35;;;;;;;2.20;1.00;;;;;;;36.85;24.67;99569.69;5076092;28;40740;-79